Pleasant Plain, Iowa
Current Conditions -  °F | °C
As of 4:55 AM on Sunday 23 Nov 2014 (Local Time) from KFFL Reporting Station
NA  
Wind Chill: 52°   Ceiling: NA
Heat Index: 52°   Visibility: NA
Dew Point: 48°   Wind: 9mph
Humidity: 88%   Direction: 170°S
Pressure: 29.63"   Gusts: NA
Location:  41.1253°N, 91.8296°W
Report Text: KFFL 231055Z AUTO 17008KT 11/09 A2963 RMK AO2
Loading
Personal Weather Stations






























Interactive Weather Map New forecast layout! Learn more

10-Day Weather Forecast

Advertisements
Track Severe Weather on mobile